Please enter the email address for your account. A verification code will be sent to you. Once you have received the verification code, you will be able to choose a new password for your account.

METAR TAF

[Source: ADDS]
METAR
LFCR 210330Z AUTO 12009KT CAVOK 05/03 Q1005 TEMPO BKN013 =
LFCR 202300Z 2100/2124 12013KT CAVOK PROB30 TEMPO 2102/2108 BKN013 BECMG 2112/2114 27006KT BECMG 2119/2121 10006KT LFBA 210330Z AUTO 10004KT 7000 NSC 04/03 Q1005 =
AMD LFBA 202054Z 2020/2103 11006KT CAVOK TEMPO 2020/2103 2000 BR PROB40 2020/2103 0800 FG OVC002 LFSL 210330Z AUTO 14002KT CAVOK 01/00 Q1005 NOSIG =
LFSL 210200Z 2103/2112 13006KT CAVOK LFLW 210300Z AUTO 11008KT 9999 ////// 04/01 Q1005 =
TAF
LFCR 202300Z 2100/2124 12013KT CAVOK PROB30 TEMPO 2102/2108 BKN013 BECMG 2112/2114 27006KT BECMG 2119/2121 10006KT =
AMD LFBA 202054Z 2020/2103 11006KT CAVOK TEMPO 2020/2103 2000 BR PROB40 2020/2103 0800 FG OVC002 =
LFSL 210200Z 2103/2112 13006KT CAVOK =
SR / SS: 06:57 / 16:22 UTC (LFCC 2019-11-21)